Prince Albert Glass Field
CYPA : now visible

Airfield :











YOU CAN JOIN US ON...

 
LOGIN :

Register | Disclaimer

   EN    FR    IT 

 









Legend :    VFR   Marginal VFR   IFR   Intensive IFR   Very Intensive IFR
Visi :
Ceiling :
>= 8 km
>= 3000ft
5 to 8 km
1000 to 3000 ft
1500m to 5 km
500 to 1000 ft
800 to 1500m
200 to 500 ft
< 800m
< 200 ft
Symbols :   Thunderstorms  Fog  Heavy snow  Heavy precipitations  Wind > 20 kt






- Airport Elevation : 1405 ft
- IATA code : YPA


CYPA - Prince Albert Glass Field

CURRENT METAR :
  • 241700Z 10012KT 15SM FEW140 FEW270 13/01 A3003 RMK AC1CI1 SLP182

EXPIRED METARs :
  • 241600Z 08013KT 15SM FEW140 FEW270 10/01 A3004 RMK AC1CI2 AC TR ACC ASOCTD SLP186
  • 241500Z 09013KT 15SM FEW080 FEW140 SCT250 08/00 A3004 RMK ACC1AC1CI2 ACC TR SLP187

TAF TAF CYPA
Valid from the 24 at 13:00 until the 25 at 01:00 UTC


241240Z 2413/2501 08015KT P6SM SCT080 RMK NXT FCST BY 241900Z
CZWG FIR / North America



MET'MAP, your aeronautical weather chart ! - Copyright ORBIFLY December 2007 - Disclaimer

ORBIFLY MET'MAP TEAM :

Programming & Development : Alexandra Zaïnal
Original concept : Baudouin d'Aumeries
Technical & hardware support : Manuel Goepfert
Assistance : Marc-Olivier Méhu

Contact : metmap@orbifly.com




SOURCES & CREDITS :

   NOAA       Earth
Advisory